Terminal Aerodrome Forecast
Issued by NWS

Home | Current Version | Previous Version | Text Only | Print | Product List | Glossary On
Versions: 1 2 3 4 5 6 7 8 9 10 11 12 13
000
FTUS44 KTSA 301700
TAFBVO
TAF
KBVO 301720Z 3018/3118 VRB03KT P6SM BKN150 OVC250
     FM310200 14002KT P6SM OVC100 PROB30 3110/3116 -RA OVC050
     FM311600 16008KT P6SM OVC050 PROB30 3116/3118 -RA=

USA.gov is the U.S. government's official web portal to all federal, state and local government web resources and services.